Time;durP1;ratioP1;P1;durP2;ratioP2;P2;SDS_P1;SDS_P2;PMS_P1;PMS_P2;Temp;Humidity;BMP_temperature;BMP_pressure;BME280_temperature;BME280_humidity;BME280_pressure;Samples;Min_cycle;Max_cycle;Signal;HPM_P1;HPM_P2
2021/11/24 00:00:06;;;;;;;18.87;6.60;;;;;;;1.38;75.75;101364.09;5076253;28;20412;-79
2021/11/24 00:02:32;;;;;;;9.20;6.18;;;;;;;1.38;76.14;101358.75;5054331;28;20444;-80
2021/11/24 00:04:57;;;;;;;9.73;5.73;;;;;;;1.36;75.83;101361.56;5053643;28;20782;-79
2021/11/24 00:07:23;;;;;;;11.73;5.77;;;;;;;1.39;76.02;101373.75;5060973;28;20387;-80
2021/11/24 00:09:48;;;;;;;10.63;5.97;;;;;;;1.37;75.69;101373.09;5061996;28;20888;-79
2021/11/24 00:12:13;;;;;;;12.23;6.20;;;;;;;1.37;75.84;101365.09;5053687;28;20397;-79
2021/11/24 00:14:39;;;;;;;9.83;6.30;;;;;;;1.37;76.00;101359.75;5062728;28;20409;-79
2021/11/24 00:17:04;;;;;;;11.70;7.10;;;;;;;1.34;76.07;101365.41;5049249;28;20421;-80
2021/11/24 00:19:29;;;;;;;11.05;7.60;;;;;;;1.37;75.99;101365.94;5057000;28;20412;-79
2021/11/24 00:21:55;;;;;;;13.93;8.73;;;;;;;1.39;76.12;101360.41;5053748;28;20393;-80
2021/11/24 00:24:21;;;;;;;14.83;8.20;;;;;;;1.34;76.32;101362.75;5069785;28;20471;-80
2021/11/24 00:26:47;;;;;;;14.68;8.80;;;;;;;1.39;75.65;101352.41;5036269;28;20863;-80
2021/11/24 00:29:12;;;;;;;20.50;10.40;;;;;;;1.39;75.85;101357.75;5059838;28;20484;-80
2021/11/24 00:31:38;;;;;;;15.07;9.23;;;;;;;1.39;75.94;101353.22;5053349;28;20451;-80
2021/11/24 00:34:03;;;;;;;14.05;8.40;;;;;;;1.37;75.96;101354.41;5067800;28;20399;-79
2021/11/24 00:36:28;;;;;;;12.03;8.47;;;;;;;1.35;75.96;101349.22;5054158;28;20410;-79
2021/11/24 00:38:54;;;;;;;14.40;9.13;;;;;;;1.30;76.47;101351.56;5053441;28;20902;-79
2021/11/24 00:41:19;;;;;;;14.33;8.40;;;;;;;1.30;76.07;101356.91;5052579;28;20404;-79
2021/11/24 00:43:45;;;;;;;14.37;8.40;;;;;;;1.34;75.87;101349.41;5052995;28;20437;-79
2021/11/24 00:46:10;;;;;;;16.27;9.38;;;;;;;1.39;76.23;101355.91;5056202;28;20383;-79
2021/11/24 00:48:35;;;;;;;12.63;8.17;;;;;;;1.38;76.03;101361.44;5064327;28;20930;-79
2021/11/24 00:51:01;;;;;;;10.73;7.37;;;;;;;1.31;76.35;101355.91;5062309;28;20396;-79
2021/11/24 00:53:26;;;;;;;12.10;7.40;;;;;;;1.37;75.87;101362.41;5056402;28;20401;-80
2021/11/24 00:55:51;;;;;;;17.70;8.13;;;;;;;1.37;76.06;101346.41;5068282;28;20494;-80
2021/11/24 00:58:18;;;;;;;12.70;8.07;;;;;;;1.39;76.23;101345.22;5035125;28;20907;-79
2021/11/24 01:00:44;;;;;;;13.20;7.80;;;;;;;1.39;76.02;101345.22;5062471;28;20391;-79
2021/11/24 01:03:09;;;;;;;12.73;7.25;;;;;;;1.37;75.83;101346.41;5064826;28;20461;-79
2021/11/24 01:05:35;;;;;;;11.88;7.50;;;;;;;1.37;75.62;101346.41;5055779;28;20393;-79
2021/11/24 01:08:00;;;;;;;10.17;7.17;;;;;;;1.36;76.13;101345.56;5052299;28;20754;-80
2021/11/24 01:10:26;;;;;;;11.83;7.87;;;;;;;1.38;75.70;101340.06;5052774;28;20484;-79
2021/11/24 01:12:51;;;;;;;12.87;6.83;;;;;;;1.37;75.90;101339.22;5067069;28;20797;-79
2021/11/24 01:15:17;;;;;;;11.80;7.27;;;;;;;1.31;75.74;101336.38;5056565;28;20417;-79
2021/11/24 01:17:43;;;;;;;12.07;7.43;;;;;;;1.27;76.25;101341.19;5053741;28;20388;-79
2021/11/24 01:20:09;;;;;;;11.67;6.73;;;;;;;1.27;76.02;101348.38;5051726;28;20393;-80
2021/11/24 01:22:34;;;;;;;11.57;7.15;;;;;;;1.27;76.28;101338.53;5062281;28;20376;-80
2021/11/24 01:25:00;;;;;;;11.40;7.90;;;;;;;1.27;76.15;101343.03;5051521;28;20486;-80
2021/11/24 01:27:25;;;;;;;11.60;7.15;;;;;;;1.22;75.97;101340.84;5054806;28;20396;-79
2021/11/24 01:29:50;;;;;;;11.07;7.22;;;;;;;1.25;75.84;101345.84;5081501;28;20394;-79
2021/11/24 01:32:16;;;;;;;13.00;7.50;;;;;;;1.26;76.41;101338.69;5051956;28;20880;-80
2021/11/24 01:34:41;;;;;;;12.00;7.40;;;;;;;1.24;76.06;101330.00;5052240;28;20433;-79
2021/11/24 01:37:07;;;;;;;9.98;7.07;;;;;;;1.21;76.13;101333.84;5053506;28;20422;-79
2021/11/24 01:39:32;;;;;;;9.75;7.97;;;;;;;1.20;76.47;101324.16;5053956;28;20756;-80
2021/11/24 01:41:57;;;;;;;7.90;7.00;;;;;;;1.15;76.25;101323.81;5052422;28;20390;-80
2021/11/24 01:44:26;;;;;;;9.80;7.20;;;;;;;1.16;76.32;101328.16;5045039;28;20453;-79
2021/11/24 01:46:54;;;;;;;12.17;7.37;;;;;;;1.17;76.34;101321.81;5055032;28;20535;-80
2021/11/24 01:49:21;;;;;;;12.07;7.75;;;;;;;1.18;76.22;101333.34;5056746;28;20826;-80
2021/11/24 01:51:46;;;;;;;16.52;7.20;;;;;;;1.21;76.26;101325.84;5063078;28;20389;-79
2021/11/24 01:54:14;;;;;;;8.93;7.23;;;;;;;1.22;75.89;101324.81;5052798;28;20462;-79
2021/11/24 01:56:39;;;;;;;11.60;7.10;;;;;;;1.21;76.45;101323.16;5067122;28;20409;-79
2021/11/24 01:59:04;;;;;;;9.82;7.38;;;;;;;1.21;76.17;101322.31;5055849;28;20399;-80
2021/11/24 02:01:30;;;;;;;11.70;6.70;;;;;;;1.20;76.40;101318.81;5051877;28;20905;-79
2021/11/24 02:03:55;;;;;;;12.43;7.03;;;;;;;1.20;76.36;101326.81;5057972;28;20960;-79
2021/11/24 02:06:20;;;;;;;10.53;7.47;;;;;;;1.13;76.51;101324.97;5052166;28;20807;-79
2021/11/24 02:08:45;;;;;;;8.90;7.00;;;;;;;1.11;76.73;101318.97;5063161;28;20405;-79
2021/11/24 02:11:11;;;;;;;8.73;7.00;;;;;;;1.15;76.64;101323.81;5050619;28;20492;-79
2021/11/24 02:13:36;;;;;;;11.70;7.57;;;;;;;1.16;76.30;101313.97;5062197;28;20379;-79
2021/11/24 02:16:01;;;;;;;11.23;7.43;;;;;;;1.11;76.28;101306.47;5057278;28;20441;-80
2021/11/24 02:18:27;;;;;;;8.87;6.50;;;;;;;1.11;76.14;101301.13;5049963;28;20745;-79
2021/11/24 02:20:52;;;;;;;9.30;6.83;;;;;;;1.11;76.11;101300.28;5050957;28;20443;-80
2021/11/24 02:23:18;;;;;;;12.60;7.67;;;;;;;1.10;76.45;101302.09;5052278;28;20413;-80
2021/11/24 02:25:44;;;;;;;11.30;7.90;;;;;;;1.12;76.66;101296.63;5054368;28;20409;-79
2021/11/24 02:28:10;;;;;;;13.05;8.23;;;;;;;1.12;76.51;101292.09;5067626;28;20491;-79
2021/11/24 02:30:35;;;;;;;9.27;7.03;;;;;;;1.14;76.51;101292.78;5055833;28;20791;-80
2021/11/24 02:33:02;;;;;;;14.20;8.30;;;;;;;1.13;76.05;101284.91;5062617;28;20439;-80
2021/11/24 02:35:27;;;;;;;11.23;8.38;;;;;;;1.10;76.09;101286.09;5053485;28;20411;-80
2021/11/24 02:37:53;;;;;;;13.23;7.87;;;;;;;1.05;76.82;101280.41;5055461;28;20435;-80
2021/11/24 02:40:18;;;;;;;11.88;7.97;;;;;;;1.06;76.94;101274.06;5054737;28;20384;-80
2021/11/24 02:42:44;;;;;;;9.40;7.60;;;;;;;1.06;76.82;101282.06;5053728;28;20409;-80
2021/11/24 02:45:09;;;;;;;9.27;7.53;;;;;;;1.08;76.99;101268.56;5051713;28;20450;-80
2021/11/24 02:47:36;;;;;;;12.53;7.93;;;;;;;1.09;76.98;101273.72;5051268;28;20393;-80
2021/11/24 02:50:04;;;;;;;11.27;8.32;;;;;;;1.07;76.91;101275.75;5067524;28;20395;-79
2021/11/24 02:52:30;;;;;;;10.45;8.02;;;;;;;1.07;77.45;101274.91;5051814;28;20416;-80
2021/11/24 02:54:59;;;;;;;12.80;7.38;;;;;;;1.05;76.91;101275.88;5052275;28;20881;-79
2021/11/24 02:57:38;;;;;;;12.77;8.55;;;;;;;1.07;77.06;101274.91;5048399;28;20704;-80
2021/11/24 03:00:16;;;;;;;11.60;7.60;;;;;;;1.08;77.19;101256.06;5052265;28;20469;-80
2021/11/24 03:02:42;;;;;;;14.82;8.60;;;;;;;1.06;77.05;101260.72;5051079;28;20537;-79
2021/11/24 03:05:08;;;;;;;10.43;8.05;;;;;;;1.04;76.87;101260.06;5050822;28;20401;-79
2021/11/24 03:07:33;;;;;;;12.35;7.72;;;;;;;1.03;76.72;101251.22;5050690;28;20760;-80
2021/11/24 03:09:59;;;;;;;13.55;8.75;;;;;;;1.02;77.43;101254.88;5038076;28;20388;-80
2021/11/24 03:12:24;;;;;;;10.18;8.13;;;;;;;1.04;77.25;101257.38;5062398;28;20413;-79
2021/11/24 03:14:50;;;;;;;9.15;6.97;;;;;;;1.03;77.14;101247.69;5063251;28;20461;-80
2021/11/24 03:17:15;;;;;;;10.73;8.87;;;;;;;1.01;77.14;101239.03;5057529;28;20411;-79
2021/11/24 03:19:40;;;;;;;11.63;8.23;;;;;;;1.00;77.47;101240.88;5050157;28;20412;-79
2021/11/24 03:22:06;;;;;;;11.67;8.43;;;;;;;0.99;77.43;101241.84;5050567;28;20869;-79
2021/11/24 03:24:31;;;;;;;12.50;8.35;;;;;;;0.98;77.01;101248.22;5061035;28;20739;-79
2021/11/24 03:26:56;;;;;;;13.87;8.53;;;;;;;0.93;77.25;101252.34;5050898;28;20401;-79
2021/11/24 03:29:22;;;;;;;11.40;7.93;;;;;;;0.94;77.82;101244.19;5067298;28;20480;-80
2021/11/24 03:31:47;;;;;;;10.80;8.03;;;;;;;0.93;77.57;101231.84;5064512;28;20800;-80
2021/11/24 03:34:13;;;;;;;12.40;8.13;;;;;;;0.90;77.53;101234.84;5050002;28;20495;-80
2021/11/24 03:36:38;;;;;;;10.45;8.38;;;;;;;0.92;77.39;101237.34;5050569;28;20432;-80
2021/11/24 03:39:05;;;;;;;12.50;8.90;;;;;;;0.92;77.46;101242.69;5065478;28;20400;-79
2021/11/24 03:41:30;;;;;;;15.47;8.70;;;;;;;0.92;77.18;101232.03;5056024;28;20686;-79
2021/11/24 03:43:56;;;;;;;11.30;8.40;;;;;;;0.88;77.56;101222.66;5063862;28;20424;-80
2021/11/24 03:46:21;;;;;;;13.93;8.93;;;;;;;0.76;78.15;101224.78;5054405;28;20400;-80
2021/11/24 03:48:46;;;;;;;12.90;8.40;;;;;;;0.79;77.94;101226.31;5069567;28;20963;-80
2021/11/24 03:51:12;;;;;;;12.40;8.40;;;;;;;0.81;77.96;101229.66;5053890;28;20977;-79
2021/11/24 03:53:40;;;;;;;14.20;8.90;;;;;;;0.82;77.89;101224.16;5070922;28;20474;-80
2021/11/24 03:56:07;;;;;;;16.33;8.67;;;;;;;0.84;78.03;101210.63;5036167;28;20454;-80
2021/11/24 03:58:32;;;;;;;12.25;8.85;;;;;;;0.82;78.19;101205.47;5070337;28;20383;-79
2021/11/24 04:00:58;;;;;;;12.80;8.77;;;;;;;0.82;78.30;101216.16;5057794;28;20750;-79
2021/11/24 04:03:23;;;;;;;11.38;8.70;;;;;;;0.81;78.17;101208.31;5069502;28;20403;-79
2021/11/24 04:05:52;;;;;;;12.80;9.70;;;;;;;0.80;77.89;101210.13;5054279;28;20409;-79
2021/11/24 04:08:17;;;;;;;12.20;8.93;;;;;;;0.77;78.31;101207.78;5056344;28;20443;-79
2021/11/24 04:10:43;;;;;;;15.53;9.13;;;;;;;0.83;77.96;101211.63;5036526;28;20398;-79
2021/11/24 04:13:08;;;;;;;14.87;9.90;;;;;;;0.82;78.19;101213.50;5060554;28;20467;-79
2021/11/24 04:15:33;;;;;;;12.27;9.47;;;;;;;0.83;78.24;101204.47;5063257;28;20415;-79
2021/11/24 04:17:58;;;;;;;17.70;9.63;;;;;;;0.74;78.19;101209.94;5055129;28;20401;-80
2021/11/24 04:20:24;;;;;;;13.30;9.47;;;;;;;0.71;78.53;101218.28;5066867;28;20756;-79
2021/11/24 04:22:49;;;;;;;14.33;8.83;;;;;;;0.65;78.89;101214.44;5061420;28;20451;-80
2021/11/24 04:25:17;;;;;;;14.33;9.77;;;;;;;0.69;78.44;101213.09;5053594;28;20443;-79
2021/11/24 04:27:42;;;;;;;13.57;8.77;;;;;;;0.71;78.32;101207.59;5067301;28;20413;-80
2021/11/24 04:30:09;;;;;;;13.60;9.90;;;;;;;0.70;78.52;101206.75;5055531;28;20409;-79
2021/11/24 04:32:34;;;;;;;14.82;10.57;;;;;;;0.66;78.68;101210.75;5058540;28;20392;-79
2021/11/24 04:34:59;;;;;;;15.65;9.52;;;;;;;0.66;78.79;101201.94;5062841;28;20487;-79
2021/11/24 04:37:25;;;;;;;14.23;9.00;;;;;;;0.71;78.19;101196.94;5059092;28;20488;-79
2021/11/24 04:39:51;;;;;;;13.60;9.13;;;;;;;0.66;78.76;101196.59;5068718;28;20892;-80
2021/11/24 04:42:17;;;;;;;11.73;8.43;;;;;;;0.62;78.88;101187.25;5051528;28;20393;-79
2021/11/24 04:44:42;;;;;;;11.85;8.60;;;;;;;0.58;79.00;101194.75;5060927;28;20901;-79
2021/11/24 04:47:07;;;;;;;13.70;8.15;;;;;;;0.55;79.14;101189.72;5075792;28;20447;-80
2021/11/24 04:49:33;;;;;;;11.10;8.50;;;;;;;0.57;78.57;101189.56;5042921;28;20401;-79
2021/11/24 04:51:58;;;;;;;14.27;9.07;;;;;;;0.60;78.47;101189.22;5085173;28;20403;-79
2021/11/24 04:54:23;;;;;;;13.60;9.57;;;;;;;0.59;78.54;101185.75;5069851;28;20401;-79
2021/11/24 04:56:48;;;;;;;27.70;11.37;;;;;;;0.60;78.85;101190.06;5068356;28;20825;-79
2021/11/24 04:59:15;;;;;;;18.27;10.57;;;;;;;0.57;78.43;101194.88;5066859;28;20467;-79
2021/11/24 05:01:40;;;;;;;22.77;11.85;;;;;;;0.52;79.09;101190.91;5056570;28;20849;-79
2021/11/24 05:04:05;;;;;;;16.50;10.35;;;;;;;0.51;79.09;101199.06;5062840;28;20453;-79
2021/11/24 05:06:31;;;;;;;17.23;9.87;;;;;;;0.57;78.83;101205.56;5063342;28;20882;-79
2021/11/24 05:08:56;;;;;;;16.57;9.60;;;;;;;0.59;78.34;101209.75;5052417;28;20402;-79
2021/11/24 05:11:22;;;;;;;24.00;10.43;;;;;;;0.59;78.59;101204.44;5052900;28;20607;-79
2021/11/24 05:13:53;;;;;;;12.32;8.35;;;;;;;0.53;78.61;101197.88;5063019;28;21032;-79
2021/11/24 05:16:19;;;;;;;10.73;7.95;;;;;;;0.51;79.16;101193.72;5033258;28;20865;-80
2021/11/24 05:18:48;;;;;;;15.02;8.45;;;;;;;0.51;78.95;101191.88;5052460;28;20453;-79
2021/11/24 05:21:33;;;;;;;14.17;8.47;;;;;;;0.49;78.74;101195.72;5058142;28;20400;-79
2021/11/24 05:23:59;;;;;;;15.63;8.50;;;;;;;0.48;78.74;101192.22;5039149;28;20453;-79
2021/11/24 05:26:26;;;;;;;14.18;8.27;;;;;;;0.48;79.02;101181.56;5057321;28;20491;-79
2021/11/24 05:28:52;;;;;;;14.25;9.38;;;;;;;0.51;79.02;101181.22;5064415;28;20492;-79
2021/11/24 05:31:18;;;;;;;14.50;9.30;;;;;;;0.51;79.15;101181.22;5068454;28;20484;-79
2021/11/24 05:33:43;;;;;;;13.60;9.20;;;;;;;0.53;79.29;101183.72;5056777;28;20417;-79
2021/11/24 05:36:10;;;;;;;30.00;13.50;;;;;;;0.50;79.64;101182.22;5052627;28;20413;-79
2021/11/24 05:38:35;;;;;;;66.57;25.88;;;;;;;0.52;79.44;101184.72;5061794;28;20416;-79
2021/11/24 05:41:01;;;;;;;37.65;18.10;;;;;;;0.55;79.49;101180.91;5077660;28;20403;-79
2021/11/24 05:43:27;;;;;;;21.70;12.57;;;;;;;0.60;79.45;101170.56;5070316;28;21107;-79
2021/11/24 05:48:19;;;;;;;15.07;8.53;;;;;;;0.67;79.44;101169.75;5057626;28;20464;-80
2021/11/24 05:50:46;;;;;;;16.42;9.02;;;;;;;0.67;79.79;101161.75;5081900;28;20400;-79
2021/11/24 05:53:13;;;;;;;12.75;8.80;;;;;;;0.67;79.13;101158.25;5065869;28;20488;-80
2021/11/24 05:55:39;;;;;;;12.73;8.73;;;;;;;0.66;79.51;101165.41;5051687;28;21000;-80
2021/11/24 05:58:05;;;;;;;12.40;8.73;;;;;;;0.65;79.23;101157.59;5051696;28;20405;-81
2021/11/24 06:00:30;;;;;;;16.87;10.40;;;;;;;0.63;79.79;101157.72;5059128;28;20421;-80
2021/11/24 06:02:55;;;;;;;19.03;10.60;;;;;;;0.62;79.87;101157.91;5071851;28;20759;-79
2021/11/24 06:05:21;;;;;;;35.00;18.27;;;;;;;0.61;79.77;101154.41;5063286;28;20860;-79
2021/11/24 06:07:46;;;;;;;13.70;9.30;;;;;;;0.59;79.82;101148.41;5063107;28;20394;-80
2021/11/24 06:10:12;;;;;;;12.63;9.80;;;;;;;0.63;79.62;101160.41;5056424;28;20396;-80
2021/11/24 06:12:38;;;;;;;14.75;10.15;;;;;;;0.58;79.61;101146.72;5062166;28;20409;-79
2021/11/24 06:15:04;;;;;;;17.52;10.20;;;;;;;0.59;80.05;101156.41;5058885;28;20405;-79
2021/11/24 06:17:29;;;;;;;15.10;9.55;;;;;;;0.56;80.21;101146.03;5061993;28;20391;-80
2021/11/24 06:19:55;;;;;;;12.73;9.77;;;;;;;0.56;80.30;101140.72;5064369;28;20391;-80
2021/11/24 06:22:20;;;;;;;15.63;10.57;;;;;;;0.61;80.07;101151.75;5047723;28;20550;-80
2021/11/24 06:24:46;;;;;;;17.80;10.73;;;;;;;0.58;80.38;101152.06;5053252;28;20896;-80
2021/11/24 06:27:11;;;;;;;17.87;10.37;;;;;;;0.55;80.43;101148.88;5071415;28;20422;-82
2021/11/24 06:29:37;;;;;;;18.13;11.20;;;;;;;0.55;80.14;101152.41;5043667;28;20415;-81
2021/11/24 06:32:03;;;;;;;15.87;10.13;;;;;;;0.55;80.15;101155.06;5054455;28;20393;-81
2021/11/24 06:34:28;;;;;;;18.40;10.63;;;;;;;0.53;80.29;101151.72;5038067;28;20399;-81
2021/11/24 06:36:53;;;;;;;18.17;11.53;;;;;;;0.51;80.78;101151.03;5062762;28;20413;-81
2021/11/24 06:39:21;;;;;;;18.07;11.23;;;;;;;0.53;80.28;101157.03;5056716;28;20401;-81
2021/11/24 06:41:46;;;;;;;14.82;10.52;;;;;;;0.54;80.10;101158.72;5069297;28;20403;-81
2021/11/24 06:44:11;;;;;;;15.25;10.38;;;;;;;0.57;80.36;101165.56;5067672;28;20410;-80
2021/11/24 06:46:37;;;;;;;16.08;11.13;;;;;;;0.52;80.40;101160.72;5047912;28;20470;-80
2021/11/24 06:49:02;;;;;;;15.27;11.40;;;;;;;0.51;79.84;101153.72;5066506;28;20407;-80
2021/11/24 06:51:28;;;;;;;17.40;11.00;;;;;;;0.41;80.42;101148.53;5068202;28;20422;-80
2021/11/24 06:53:53;;;;;;;15.07;10.67;;;;;;;0.40;80.38;101154.00;5054729;28;20785;-80
2021/11/24 06:56:18;;;;;;;16.27;11.17;;;;;;;0.35;80.58;101157.19;5064469;28;20416;-80
2021/11/24 06:58:43;;;;;;;15.27;11.07;;;;;;;0.37;80.21;101154.34;5065612;28;20816;-80
2021/11/24 07:01:09;;;;;;;16.87;11.67;;;;;;;0.36;80.09;101150.03;5051018;28;20442;-80
2021/11/24 07:03:34;;;;;;;18.17;12.17;;;;;;;0.32;80.64;101148.66;5067250;28;20395;-79
2021/11/24 07:05:59;;;;;;;20.02;12.43;;;;;;;0.26;80.88;101146.66;5056120;28;20871;-82
2021/11/24 07:08:25;;;;;;;21.53;13.87;;;;;;;0.26;80.58;101151.97;5063824;28;20480;-81
2021/11/24 07:10:50;;;;;;;33.17;23.87;;;;;;;0.21;80.82;101167.59;5064493;28;20408;-82
2021/11/24 07:13:15;;;;;;;31.10;23.87;;;;;;;0.17;81.06;101169.75;5070379;28;20927;-81
2021/11/24 07:15:41;;;;;;;24.77;18.90;;;;;;;0.13;81.43;101168.44;5062820;28;20872;-82
2021/11/24 07:18:06;;;;;;;28.10;18.88;;;;;;;0.17;81.73;101153.75;5051557;28;20491;-81
2021/11/24 07:20:32;;;;;;;26.27;17.38;;;;;;;0.10;81.66;101155.41;5048661;28;20407;-81
2021/11/24 07:22:58;;;;;;;26.98;19.67;;;;;;;0.07;81.34;101147.72;5054640;28;20396;-81
2021/11/24 07:25:24;;;;;;;27.83;18.52;;;;;;;0.08;82.37;101145.91;5054842;28;20404;-81
2021/11/24 07:27:49;;;;;;;27.67;18.33;;;;;;;0.10;81.68;101157.25;5045510;28;20977;-82
2021/11/24 07:30:17;;;;;;;28.47;18.90;;;;;;;0.14;82.02;101154.09;5074252;28;20486;-81
2021/11/24 07:32:43;;;;;;;26.20;17.73;;;;;;;0.21;82.04;101147.13;5074255;28;20633;-81
2021/11/24 07:35:08;;;;;;;27.93;19.17;;;;;;;0.21;82.12;101157.78;5055993;28;20404;-81
2021/11/24 07:37:34;;;;;;;30.23;18.67;;;;;;;0.18;82.33;101155.44;5055625;28;20478;-83
2021/11/24 07:39:59;;;;;;;31.20;20.58;;;;;;;0.20;82.29;101160.63;5064302;28;20381;-81
2021/11/24 07:42:24;;;;;;;36.27;27.00;;;;;;;0.27;82.73;101158.97;5067093;28;20387;-82
2021/11/24 07:44:50;;;;;;;43.17;22.87;;;;;;;0.32;82.20;101160.16;5057334;28;20500;-80
2021/11/24 07:47:15;;;;;;;31.93;20.10;;;;;;;0.42;81.95;101163.53;5059068;28;20400;-81
2021/11/24 07:49:41;;;;;;;32.00;19.90;;;;;;;0.35;82.60;101153.66;5065760;28;20389;-81
2021/11/24 07:52:06;;;;;;;30.53;21.40;;;;;;;0.44;82.52;101150.88;5055287;28;20405;-81
2021/11/24 07:54:31;;;;;;;28.02;18.95;;;;;;;0.44;82.49;101153.53;5053851;28;20404;-81
2021/11/24 07:56:57;;;;;;;32.80;19.40;;;;;;;0.43;82.37;101143.00;5070276;28;20464;-81
2021/11/24 07:59:23;;;;;;;30.02;18.77;;;;;;;0.47;82.95;101145.19;5057441;28;20606;-81
2021/11/24 08:01:49;;;;;;;25.35;17.20;;;;;;;0.48;82.75;101138.03;5054287;28;20402;-81
2021/11/24 08:04:15;;;;;;;29.42;19.23;;;;;;;0.56;83.25;101137.22;5054990;28;20468;-82
2021/11/24 08:06:40;;;;;;;26.90;16.67;;;;;;;0.63;82.83;101133.72;5069162;28;20452;-81
2021/11/24 08:09:06;;;;;;;27.10;17.60;;;;;;;0.67;83.13;101135.06;5059949;28;20438;-81
2021/11/24 08:11:31;;;;;;;25.67;16.90;;;;;;;0.76;83.00;101127.94;5063858;28;20907;-81
2021/11/24 08:13:56;;;;;;;28.85;17.23;;;;;;;0.93;82.63;101121.59;5053858;28;20736;-81
2021/11/24 08:16:22;;;;;;;27.57;17.83;;;;;;;1.11;82.51;101118.75;5085611;28;20759;-81
2021/11/24 08:18:47;;;;;;;24.67;16.90;;;;;;;1.37;81.43;101119.41;5056292;28;20477;-81
2021/11/24 08:21:12;;;;;;;25.90;17.17;;;;;;;1.65;80.38;101119.88;5056508;28;20489;-82
2021/11/24 08:23:38;;;;;;;24.10;16.20;;;;;;;2.08;78.58;101120.19;5064668;28;20770;-81
2021/11/24 08:26:03;;;;;;;22.97;15.47;;;;;;;2.73;76.57;101119.84;5058403;28;20980;-81
2021/11/24 08:28:29;;;;;;;18.40;14.23;;;;;;;3.18;73.88;101108.25;5034869;28;20900;-81
2021/11/24 08:30:54;;;;;;;20.43;14.50;;;;;;;3.11;73.75;101110.00;5061372;28;20392;-81
2021/11/24 08:33:19;;;;;;;23.03;14.83;;;;;;;3.07;73.36;101101.47;5061754;28;20412;-81
2021/11/24 08:35:48;;;;;;;20.57;14.87;;;;;;;2.82;73.97;101102.69;5053277;28;20423;-81
2021/11/24 08:38:13;;;;;;;18.93;14.30;;;;;;;2.46;75.44;101093.59;5069094;28;20907;-81
2021/11/24 08:40:39;;;;;;;21.03;14.80;;;;;;;2.83;75.09;101098.19;5055532;28;20395;-81
2021/11/24 08:43:04;;;;;;;21.13;14.37;;;;;;;3.98;71.41;101093.16;5053597;28;20394;-81
2021/11/24 08:45:30;;;;;;;19.20;13.53;;;;;;;4.31;68.41;101085.53;5072296;28;20405;-81
2021/11/24 08:47:55;;;;;;;24.03;15.63;;;;;;;3.14;72.04;101090.88;5055276;28;20410;-81
2021/11/24 08:50:22;;;;;;;22.17;16.70;;;;;;;2.87;74.71;101091.44;5059440;28;20716;-81
2021/11/24 08:52:50;;;;;;;23.33;17.20;;;;;;;3.01;73.58;101085.31;5063498;28;20394;-81
2021/11/24 08:55:17;;;;;;;16.58;13.15;;;;;;;2.79;74.29;101078.13;5068438;28;20792;-81
2021/11/24 08:57:43;;;;;;;18.02;14.68;;;;;;;2.97;74.23;101073.28;5069335;28;20390;-81
2021/11/24 09:00:12;;;;;;;21.42;12.93;;;;;;;3.05;74.22;101073.22;5052909;28;20413;-81
2021/11/24 09:02:39;;;;;;;18.70;13.48;;;;;;;3.22;73.71;101076.59;5052861;28;20463;-81
2021/11/24 09:05:05;;;;;;;17.58;12.27;;;;;;;3.62;72.75;101079.66;5052807;28;20386;-81
2021/11/24 09:07:30;;;;;;;17.33;12.02;;;;;;;4.15;70.26;101072.31;5070086;28;20404;-82
2021/11/24 09:09:56;;;;;;;16.47;11.40;;;;;;;4.41;69.12;101071.81;5067363;28;20392;-80
2021/11/24 09:12:21;;;;;;;14.88;11.60;;;;;;;4.41;68.34;101067.25;5059869;28;20397;-82
2021/11/24 09:14:46;;;;;;;16.30;12.07;;;;;;;4.02;69.83;101072.16;5059381;28;20777;-82
2021/11/24 09:17:12;;;;;;;17.47;11.60;;;;;;;3.72;70.82;101065.19;5055017;28;20413;-81
2021/11/24 09:19:38;;;;;;;15.47;11.67;;;;;;;3.41;71.77;101076.06;5070450;28;20873;-81
2021/11/24 09:22:06;;;;;;;16.42;12.00;;;;;;;3.34;72.66;101069.75;5071632;28;20402;-80
2021/11/24 09:24:31;;;;;;;16.20;11.85;;;;;;;3.39;72.73;101065.50;5060218;28;20791;-80
2021/11/24 09:30:19;;;;;;;16.00;11.73;;;;;;;3.35;74.03;101047.31;4984344;28;20467;-80
2021/11/24 09:33:04;;;;;;;16.00;11.90;;;;;;;3.95;72.38;101053.28;5052528;28;20401;-81
2021/11/24 09:35:30;;;;;;;14.68;11.43;;;;;;;4.35;70.50;101037.66;5061272;28;20692;-81
2021/11/24 09:37:55;;;;;;;15.40;11.13;;;;;;;4.27;70.47;101029.75;5052137;28;20459;-81
2021/11/24 09:40:20;;;;;;;14.37;11.20;;;;;;;4.26;70.45;101020.84;5056399;28;20514;-81
2021/11/24 09:42:47;;;;;;;15.17;11.37;;;;;;;4.51;69.89;101016.78;5052475;28;20389;-81
2021/11/24 09:45:15;;;;;;;14.20;12.10;;;;;;;4.77;69.03;101020.75;5065947;28;20420;-80
2021/11/24 09:47:45;;;;;;;15.70;11.15;;;;;;;4.78;68.80;101025.91;5052072;28;20718;-81
2021/11/24 09:50:11;;;;;;;15.45;11.23;;;;;;;5.44;67.62;101015.63;5051690;28;20397;-81
2021/11/24 09:52:36;;;;;;;14.63;11.48;;;;;;;6.12;64.65;101012.06;5068246;28;20743;-81
2021/11/24 09:55:03;;;;;;;14.75;11.13;;;;;;;6.02;63.97;101008.94;5054473;28;20453;-81
2021/11/24 09:57:31;;;;;;;16.42;11.25;;;;;;;6.01;63.50;101001.88;5060045;28;20447;-81
2021/11/24 09:59:56;;;;;;;18.47;11.37;;;;;;;5.65;64.12;100997.56;5061643;28;20442;-81
2021/11/24 10:02:22;;;;;;;15.43;11.93;;;;;;;5.34;66.16;100991.81;5064226;28;20411;-81
2021/11/24 10:04:48;;;;;;;15.90;12.57;;;;;;;5.37;65.87;100995.97;5050813;28;20649;-79
2021/11/24 10:07:15;;;;;;;15.90;12.32;;;;;;;5.39;65.86;100989.38;5059213;28;20387;-81
2021/11/24 10:09:42;;;;;;;15.77;13.15;;;;;;;5.05;67.09;100984.81;5060213;28;20753;-80
2021/11/24 10:12:09;;;;;;;20.67;12.80;;;;;;;4.74;68.28;100983.53;5067118;28;20846;-80
2021/11/24 10:14:36;;;;;;;13.67;12.17;;;;;;;4.54;68.66;100976.16;5051709;28;20520;-80
2021/11/24 10:17:27;;;;;;;18.33;12.43;;;;;;;4.35;69.41;100970.56;5059175;28;20407;-81
2021/11/24 10:20:06;;;;;;;16.55;12.65;;;;;;;4.17;69.91;100963.00;5067711;28;20469;-81
2021/11/24 10:22:32;;;;;;;19.25;12.75;;;;;;;4.09;70.43;100958.56;5055361;28;20426;-80
2021/11/24 10:25:08;;;;;;;16.52;12.85;;;;;;;4.02;70.18;100954.16;5063722;28;20428;-80
2021/11/24 10:27:45;;;;;;;21.77;13.13;;;;;;;3.90;70.80;100950.31;5064664;28;20382;-80
2021/11/24 10:30:22;;;;;;;17.57;13.83;;;;;;;3.95;70.82;100948.72;5067251;28;20417;-81
2021/11/24 10:32:48;;;;;;;22.70;13.80;;;;;;;3.90;70.63;100942.28;5050979;28;20394;-81
2021/11/24 10:35:13;;;;;;;24.92;14.82;;;;;;;3.83;71.21;100946.72;5057840;28;20772;-79
2021/11/24 10:37:39;;;;;;;21.20;14.00;;;;;;;3.80;71.39;100945.25;5058526;28;20408;-78
2021/11/24 10:41:13;;;;;;;;;;;;;;;;;;;;;
2021/11/24 10:43:45;;;;;;;18.35;13.80;;;;;;;3.92;71.10;100924.97;5022426;28;20416;-80
2021/11/24 10:46:13;;;;;;;21.15;15.45;;;;;;;3.92;70.75;100924.97;5061130;28;20713;-79
2021/11/24 10:48:40;;;;;;;19.95;15.07;;;;;;;3.94;71.04;100914.06;5073525;28;20411;-80
2021/11/24 10:51:34;;;;;;;19.55;14.63;;;;;;;3.93;70.91;100915.91;5058669;28;20443;-81
2021/11/24 10:54:14;;;;;;;21.45;16.92;;;;;;;3.92;71.13;100902.72;5059724;28;20394;-81
2021/11/24 10:56:59;;;;;;;29.00;17.20;;;;;;;3.86;71.49;100906.97;5065573;28;20413;-81
2021/11/24 10:59:25;;;;;;;21.13;16.67;;;;;;;3.86;71.42;100896.25;5072659;28;20399;-82
2021/11/24 11:01:52;;;;;;;22.17;15.05;;;;;;;3.95;71.23;100891.59;5059154;28;20398;-81
2021/11/24 11:04:17;;;;;;;19.80;15.05;;;;;;;4.02;71.46;100892.47;5055486;28;20455;-81
2021/11/24 11:06:42;;;;;;;21.00;16.40;;;;;;;3.94;71.05;100885.41;5066870;28;20985;-81
2021/11/24 11:09:09;;;;;;;21.80;16.50;;;;;;;4.01;71.18;100882.78;5041554;28;20838;-79
2021/11/24 11:11:38;;;;;;;21.43;15.93;;;;;;;4.09;71.11;100883.47;5062000;28;20389;-81
2021/11/24 11:14:19;;;;;;;19.10;15.25;;;;;;;4.16;70.69;100878.16;5041041;28;20722;-81
2021/11/24 11:16:53;;;;;;;22.92;14.95;;;;;;;4.22;70.54;100877.38;5067208;28;20520;-81
2021/11/24 11:19:37;;;;;;;22.67;16.00;;;;;;;4.24;70.46;100861.94;5056136;28;20760;-80
2021/11/24 11:22:03;;;;;;;19.00;14.73;;;;;;;4.18;70.26;100865.41;5063216;28;20395;-81
2021/11/24 11:24:28;;;;;;;21.42;15.63;;;;;;;4.13;70.91;100865.97;5062610;28;20532;-81